sensor_id;sensor_type;location;lat;lon;timestamp;temperature;humidity
78779;DHT22;68121;52.404;5.318;2024-01-15T00:00:00;2.80;74.60
78779;DHT22;68121;52.404;5.318;2024-01-15T00:02:26;2.80;74.60
78779;DHT22;68121;52.404;5.318;2024-01-15T00:04:52;2.80;74.60
78779;DHT22;68121;52.404;5.318;2024-01-15T00:07:18;2.80;74.50
78779;DHT22;68121;52.404;5.318;2024-01-15T00:09:44;2.80;74.50
78779;DHT22;68121;52.404;5.318;2024-01-15T00:12:10;2.70;74.50
78779;DHT22;68121;52.404;5.318;2024-01-15T00:14:36;2.70;74.50
78779;DHT22;68121;52.404;5.318;2024-01-15T00:17:02;2.70;74.50
78779;DHT22;68121;52.404;5.318;2024-01-15T00:19:28;2.70;74.40
78779;DHT22;68121;52.404;5.318;2024-01-15T00:21:58;2.70;74.40
78779;DHT22;68121;52.404;5.318;2024-01-15T00:24:25;2.70;74.40
78779;DHT22;68121;52.404;5.318;2024-01-15T00:26:51;2.70;74.40
78779;DHT22;68121;52.404;5.318;2024-01-15T00:29:17;2.70;74.30
78779;DHT22;68121;52.404;5.318;2024-01-15T00:31:43;2.70;74.30
78779;DHT22;68121;52.404;5.318;2024-01-15T00:34:09;2.70;74.20
78779;DHT22;68121;52.404;5.318;2024-01-15T00:36:35;2.70;74.20
78779;DHT22;68121;52.404;5.318;2024-01-15T00:39:01;2.70;74.20
78779;DHT22;68121;52.404;5.318;2024-01-15T00:41:27;2.70;74.20
78779;DHT22;68121;52.404;5.318;2024-01-15T00:43:53;2.70;74.10
78779;DHT22;68121;52.404;5.318;2024-01-15T00:46:19;2.70;74.10
78779;DHT22;68121;52.404;5.318;2024-01-15T00:48:45;2.70;74.00
78779;DHT22;68121;52.404;5.318;2024-01-15T00:51:12;2.70;74.00
78779;DHT22;68121;52.404;5.318;2024-01-15T00:53:39;2.80;73.90
78779;DHT22;68121;52.404;5.318;2024-01-15T00:56:05;2.80;73.90
78779;DHT22;68121;52.404;5.318;2024-01-15T00:58:31;2.80;73.90
78779;DHT22;68121;52.404;5.318;2024-01-15T01:00:57;2.80;73.90
78779;DHT22;68121;52.404;5.318;2024-01-15T01:03:23;2.70;73.90
78779;DHT22;68121;52.404;5.318;2024-01-15T01:05:49;2.80;73.90
78779;DHT22;68121;52.404;5.318;2024-01-15T01:08:16;2.70;73.90
78779;DHT22;68121;52.404;5.318;2024-01-15T01:10:42;2.70;74.00
78779;DHT22;68121;52.404;5.318;2024-01-15T01:13:10;2.70;74.00
78779;DHT22;68121;52.404;5.318;2024-01-15T01:15:36;2.70;74.00
78779;DHT22;68121;52.404;5.318;2024-01-15T01:18:03;2.70;74.10
78779;DHT22;68121;52.404;5.318;2024-01-15T01:20:29;2.60;74.10
78779;DHT22;68121;52.404;5.318;2024-01-15T01:22:56;2.60;74.10
78779;DHT22;68121;52.404;5.318;2024-01-15T01:25:22;2.50;74.20
78779;DHT22;68121;52.404;5.318;2024-01-15T01:27:48;2.50;74.20
78779;DHT22;68121;52.404;5.318;2024-01-15T01:30:14;2.50;74.20
78779;DHT22;68121;52.404;5.318;2024-01-15T01:32:40;2.50;74.30
78779;DHT22;68121;52.404;5.318;2024-01-15T01:35:06;2.50;74.30
78779;DHT22;68121;52.404;5.318;2024-01-15T01:37:32;2.50;74.30
78779;DHT22;68121;52.404;5.318;2024-01-15T01:39:58;2.50;74.40
78779;DHT22;68121;52.404;5.318;2024-01-15T01:42:24;2.50;74.40
78779;DHT22;68121;52.404;5.318;2024-01-15T01:44:50;2.50;74.40
78779;DHT22;68121;52.404;5.318;2024-01-15T01:47:16;2.50;74.40
78779;DHT22;68121;52.404;5.318;2024-01-15T01:49:43;2.50;74.40
78779;DHT22;68121;52.404;5.318;2024-01-15T01:52:09;2.50;74.40
78779;DHT22;68121;52.404;5.318;2024-01-15T01:54:37;2.50;74.40
78779;DHT22;68121;52.404;5.318;2024-01-15T01:57:04;2.50;74.40
78779;DHT22;68121;52.404;5.318;2024-01-15T01:59:32;2.50;74.30
78779;DHT22;68121;52.404;5.318;2024-01-15T02:02:00;2.50;74.40
78779;DHT22;68121;52.404;5.318;2024-01-15T02:04:28;2.50;74.30
78779;DHT22;68121;52.404;5.318;2024-01-15T02:06:54;2.50;74.30
78779;DHT22;68121;52.404;5.318;2024-01-15T02:09:20;2.50;74.40
78779;DHT22;68121;52.404;5.318;2024-01-15T02:11:47;2.50;74.40
78779;DHT22;68121;52.404;5.318;2024-01-15T02:14:14;2.50;74.40
78779;DHT22;68121;52.404;5.318;2024-01-15T02:16:40;2.50;74.30
78779;DHT22;68121;52.404;5.318;2024-01-15T02:19:06;2.50;74.30
78779;DHT22;68121;52.404;5.318;2024-01-15T02:21:32;2.50;74.40
78779;DHT22;68121;52.404;5.318;2024-01-15T02:23:58;2.50;74.40
78779;DHT22;68121;52.404;5.318;2024-01-15T02:26:25;2.50;74.40
78779;DHT22;68121;52.404;5.318;2024-01-15T02:28:52;2.50;74.50
78779;DHT22;68121;52.404;5.318;2024-01-15T02:31:18;2.50;74.40
78779;DHT22;68121;52.404;5.318;2024-01-15T02:33:44;2.50;74.50
78779;DHT22;68121;52.404;5.318;2024-01-15T02:36:12;2.50;74.50
78779;DHT22;68121;52.404;5.318;2024-01-15T02:38:38;2.50;74.60
78779;DHT22;68121;52.404;5.318;2024-01-15T02:41:04;2.50;74.60
78779;DHT22;68121;52.404;5.318;2024-01-15T02:43:30;2.50;74.60
78779;DHT22;68121;52.404;5.318;2024-01-15T02:45:56;2.50;74.60
78779;DHT22;68121;52.404;5.318;2024-01-15T02:48:22;2.50;74.70
78779;DHT22;68121;52.404;5.318;2024-01-15T02:50:48;2.50;74.60
78779;DHT22;68121;52.404;5.318;2024-01-15T02:53:14;2.50;74.60
78779;DHT22;68121;52.404;5.318;2024-01-15T02:55:40;2.50;74.50
78779;DHT22;68121;52.404;5.318;2024-01-15T02:58:07;2.50;74.50
78779;DHT22;68121;52.404;5.318;2024-01-15T03:00:33;2.50;74.40
78779;DHT22;68121;52.404;5.318;2024-01-15T03:03:00;2.50;74.40
78779;DHT22;68121;52.404;5.318;2024-01-15T03:05:26;2.40;74.40
78779;DHT22;68121;52.404;5.318;2024-01-15T03:07:52;2.40;74.50
78779;DHT22;68121;52.404;5.318;2024-01-15T03:10:18;2.30;74.60
78779;DHT22;68121;52.404;5.318;2024-01-15T03:12:44;2.30;74.60
78779;DHT22;68121;52.404;5.318;2024-01-15T03:15:10;2.30;74.60
78779;DHT22;68121;52.404;5.318;2024-01-15T03:17:37;2.30;74.70
78779;DHT22;68121;52.404;5.318;2024-01-15T03:20:03;2.30;74.70
78779;DHT22;68121;52.404;5.318;2024-01-15T03:22:29;2.20;74.80
78779;DHT22;68121;52.404;5.318;2024-01-15T03:24:55;2.20;74.70
78779;DHT22;68121;52.404;5.318;2024-01-15T03:27:21;2.20;74.70
78779;DHT22;68121;52.404;5.318;2024-01-15T03:29:47;2.20;74.70
78779;DHT22;68121;52.404;5.318;2024-01-15T03:32:13;2.20;74.80
78779;DHT22;68121;52.404;5.318;2024-01-15T03:34:39;2.20;74.70
78779;DHT22;68121;52.404;5.318;2024-01-15T03:37:05;2.20;74.80
78779;DHT22;68121;52.404;5.318;2024-01-15T03:39:31;2.20;74.80
78779;DHT22;68121;52.404;5.318;2024-01-15T03:41:57;2.20;74.80
78779;DHT22;68121;52.404;5.318;2024-01-15T03:44:23;2.20;74.80
78779;DHT22;68121;52.404;5.318;2024-01-15T03:46:50;2.20;74.90
78779;DHT22;68121;52.404;5.318;2024-01-15T03:49:16;2.20;75.00
78779;DHT22;68121;52.404;5.318;2024-01-15T03:51:42;2.20;75.00
78779;DHT22;68121;52.404;5.318;2024-01-15T03:54:08;2.20;74.90
78779;DHT22;68121;52.404;5.318;2024-01-15T03:56:34;2.20;75.00
78779;DHT22;68121;52.404;5.318;2024-01-15T03:59:01;2.20;75.00
78779;DHT22;68121;52.404;5.318;2024-01-15T04:01:27;2.20;75.10
78779;DHT22;68121;52.404;5.318;2024-01-15T04:03:53;2.20;75.10
78779;DHT22;68121;52.404;5.318;2024-01-15T04:06:19;2.20;75.00
78779;DHT22;68121;52.404;5.318;2024-01-15T04:08:45;2.20;75.10
78779;DHT22;68121;52.404;5.318;2024-01-15T04:11:11;2.20;75.10
78779;DHT22;68121;52.404;5.318;2024-01-15T04:13:37;2.20;75.00
78779;DHT22;68121;52.404;5.318;2024-01-15T04:16:03;2.20;75.10
78779;DHT22;68121;52.404;5.318;2024-01-15T04:18:30;2.20;75.00
78779;DHT22;68121;52.404;5.318;2024-01-15T04:20:56;2.20;75.00
78779;DHT22;68121;52.404;5.318;2024-01-15T04:23:22;2.20;75.00
78779;DHT22;68121;52.404;5.318;2024-01-15T04:25:48;2.20;75.00
78779;DHT22;68121;52.404;5.318;2024-01-15T04:28:14;2.30;75.10
78779;DHT22;68121;52.404;5.318;2024-01-15T04:30:40;2.30;75.10
78779;DHT22;68121;52.404;5.318;2024-01-15T04:33:06;2.30;75.00
78779;DHT22;68121;52.404;5.318;2024-01-15T04:35:33;2.20;75.10
78779;DHT22;68121;52.404;5.318;2024-01-15T04:37:59;2.30;75.10
78779;DHT22;68121;52.404;5.318;2024-01-15T04:40:25;2.30;75.00
78779;DHT22;68121;52.404;5.318;2024-01-15T04:42:54;2.30;75.00
78779;DHT22;68121;52.404;5.318;2024-01-15T04:45:20;2.30;75.00
78779;DHT22;68121;52.404;5.318;2024-01-15T04:47:48;2.30;75.00
78779;DHT22;68121;52.404;5.318;2024-01-15T04:50:15;2.40;75.00
78779;DHT22;68121;52.404;5.318;2024-01-15T04:52:41;2.40;74.90
78779;DHT22;68121;52.404;5.318;2024-01-15T04:55:07;2.40;75.00
78779;DHT22;68121;52.404;5.318;2024-01-15T04:57:33;2.40;74.90
78779;DHT22;68121;52.404;5.318;2024-01-15T04:59:59;2.50;75.00
78779;DHT22;68121;52.404;5.318;2024-01-15T05:02:25;2.50;74.80
78779;DHT22;68121;52.404;5.318;2024-01-15T05:04:51;2.50;74.60
78779;DHT22;68121;52.404;5.318;2024-01-15T05:07:17;2.40;74.50
78779;DHT22;68121;52.404;5.318;2024-01-15T05:09:43;2.30;74.60
78779;DHT22;68121;52.404;5.318;2024-01-15T05:12:09;2.20;74.70
78779;DHT22;68121;52.404;5.318;2024-01-15T05:14:35;2.10;74.80
78779;DHT22;68121;52.404;5.318;2024-01-15T05:17:01;2.10;75.00
78779;DHT22;68121;52.404;5.318;2024-01-15T05:19:27;2.10;75.00
78779;DHT22;68121;52.404;5.318;2024-01-15T05:21:53;2.10;75.10
78779;DHT22;68121;52.404;5.318;2024-01-15T05:24:20;2.10;75.20
78779;DHT22;68121;52.404;5.318;2024-01-15T05:26:46;2.10;75.20
78779;DHT22;68121;52.404;5.318;2024-01-15T05:29:12;2.10;75.20
78779;DHT22;68121;52.404;5.318;2024-01-15T05:31:38;2.10;75.20
78779;DHT22;68121;52.404;5.318;2024-01-15T05:34:04;2.10;75.30
78779;DHT22;68121;52.404;5.318;2024-01-15T05:36:30;2.10;75.30
78779;DHT22;68121;52.404;5.318;2024-01-15T05:38:56;2.10;75.30
78779;DHT22;68121;52.404;5.318;2024-01-15T05:41:22;2.10;75.30
78779;DHT22;68121;52.404;5.318;2024-01-15T05:43:48;2.10;75.30
78779;DHT22;68121;52.404;5.318;2024-01-15T05:46:15;2.00;75.20
78779;DHT22;68121;52.404;5.318;2024-01-15T05:48:41;2.00;75.10
78779;DHT22;68121;52.404;5.318;2024-01-15T05:51:07;1.80;75.10
78779;DHT22;68121;52.404;5.318;2024-01-15T05:53:33;1.70;75.20
78779;DHT22;68121;52.404;5.318;2024-01-15T05:55:59;1.70;75.30
78779;DHT22;68121;52.404;5.318;2024-01-15T05:58:27;1.60;75.50
78779;DHT22;68121;52.404;5.318;2024-01-15T06:00:53;1.60;75.60
78779;DHT22;68121;52.404;5.318;2024-01-15T06:03:19;1.50;75.60
78779;DHT22;68121;52.404;5.318;2024-01-15T06:05:45;1.50;75.70
78779;DHT22;68121;52.404;5.318;2024-01-15T06:08:11;1.50;75.70
78779;DHT22;68121;52.404;5.318;2024-01-15T06:10:37;1.50;75.70
78779;DHT22;68121;52.404;5.318;2024-01-15T06:13:03;1.60;75.80
78779;DHT22;68121;52.404;5.318;2024-01-15T06:15:29;1.60;75.80
78779;DHT22;68121;52.404;5.318;2024-01-15T06:17:55;1.60;75.80
78779;DHT22;68121;52.404;5.318;2024-01-15T06:20:21;1.60;75.80
78779;DHT22;68121;52.404;5.318;2024-01-15T06:22:47;1.70;75.80
78779;DHT22;68121;52.404;5.318;2024-01-15T06:25:13;1.70;75.80
78779;DHT22;68121;52.404;5.318;2024-01-15T06:27:39;1.70;75.70
78779;DHT22;68121;52.404;5.318;2024-01-15T06:30:05;1.70;75.80
78779;DHT22;68121;52.404;5.318;2024-01-15T06:32:32;1.80;75.80
78779;DHT22;68121;52.404;5.318;2024-01-15T06:34:58;1.80;75.90
78779;DHT22;68121;52.404;5.318;2024-01-15T06:37:24;1.80;75.90
78779;DHT22;68121;52.404;5.318;2024-01-15T06:39:50;1.80;75.80
78779;DHT22;68121;52.404;5.318;2024-01-15T06:42:16;1.80;75.90
78779;DHT22;68121;52.404;5.318;2024-01-15T06:44:42;1.90;75.80
78779;DHT22;68121;52.404;5.318;2024-01-15T06:47:08;1.90;75.80
78779;DHT22;68121;52.404;5.318;2024-01-15T06:49:34;1.90;75.80
78779;DHT22;68121;52.404;5.318;2024-01-15T06:52:00;1.90;75.90
78779;DHT22;68121;52.404;5.318;2024-01-15T06:54:26;1.90;75.80
78779;DHT22;68121;52.404;5.318;2024-01-15T06:56:52;1.90;75.90
78779;DHT22;68121;52.404;5.318;2024-01-15T06:59:18;1.90;75.90
78779;DHT22;68121;52.404;5.318;2024-01-15T07:01:44;1.90;75.80
78779;DHT22;68121;52.404;5.318;2024-01-15T07:04:10;2.00;75.90
78779;DHT22;68121;52.404;5.318;2024-01-15T07:06:36;2.00;75.80
78779;DHT22;68121;52.404;5.318;2024-01-15T07:09:03;2.00;75.80
78779;DHT22;68121;52.404;5.318;2024-01-15T07:11:29;2.00;75.80
78779;DHT22;68121;52.404;5.318;2024-01-15T07:13:55;2.00;75.80
78779;DHT22;68121;52.404;5.318;2024-01-15T07:16:21;2.00;75.80
78779;DHT22;68121;52.404;5.318;2024-01-15T07:18:47;2.00;75.80
78779;DHT22;68121;52.404;5.318;2024-01-15T07:21:13;2.00;75.80
78779;DHT22;68121;52.404;5.318;2024-01-15T07:23:39;2.00;75.80
78779;DHT22;68121;52.404;5.318;2024-01-15T07:26:05;2.00;75.80
78779;DHT22;68121;52.404;5.318;2024-01-15T07:28:31;2.00;75.70
78779;DHT22;68121;52.404;5.318;2024-01-15T07:30:57;2.00;75.70
78779;DHT22;68121;52.404;5.318;2024-01-15T07:33:23;1.90;75.70
78779;DHT22;68121;52.404;5.318;2024-01-15T07:35:49;1.90;75.80
78779;DHT22;68121;52.404;5.318;2024-01-15T07:38:15;1.90;75.70
78779;DHT22;68121;52.404;5.318;2024-01-15T07:40:41;1.90;75.70
78779;DHT22;68121;52.404;5.318;2024-01-15T07:43:07;1.80;75.80
78779;DHT22;68121;52.404;5.318;2024-01-15T07:45:33;1.80;75.80
78779;DHT22;68121;52.404;5.318;2024-01-15T07:47:59;1.90;75.80
78779;DHT22;68121;52.404;5.318;2024-01-15T07:50:25;1.80;75.70
78779;DHT22;68121;52.404;5.318;2024-01-15T07:52:52;1.80;75.70
78779;DHT22;68121;52.404;5.318;2024-01-15T07:55:18;1.80;75.80
78779;DHT22;68121;52.404;5.318;2024-01-15T07:57:44;1.80;75.80
78779;DHT22;68121;52.404;5.318;2024-01-15T08:00:12;1.80;75.90
78779;DHT22;68121;52.404;5.318;2024-01-15T08:02:38;1.80;75.90
78779;DHT22;68121;52.404;5.318;2024-01-15T08:05:04;1.80;76.00
78779;DHT22;68121;52.404;5.318;2024-01-15T08:07:31;1.80;76.00
78779;DHT22;68121;52.404;5.318;2024-01-15T08:09:57;1.80;76.00
78779;DHT22;68121;52.404;5.318;2024-01-15T08:12:24;1.80;75.90
78779;DHT22;68121;52.404;5.318;2024-01-15T08:14:50;1.80;75.90
78779;DHT22;68121;52.404;5.318;2024-01-15T08:17:16;1.80;75.80
78779;DHT22;68121;52.404;5.318;2024-01-15T08:19:42;1.90;75.90
78779;DHT22;68121;52.404;5.318;2024-01-15T08:22:08;1.90;75.80
78779;DHT22;68121;52.404;5.318;2024-01-15T08:24:35;1.90;75.80
78779;DHT22;68121;52.404;5.318;2024-01-15T08:27:02;1.90;75.70
78779;DHT22;68121;52.404;5.318;2024-01-15T08:29:28;2.00;75.80
78779;DHT22;68121;52.404;5.318;2024-01-15T08:31:54;2.00;75.70
78779;DHT22;68121;52.404;5.318;2024-01-15T08:34:20;2.00;75.70
78779;DHT22;68121;52.404;5.318;2024-01-15T08:36:46;2.00;75.70
78779;DHT22;68121;52.404;5.318;2024-01-15T08:39:12;2.00;75.70
78779;DHT22;68121;52.404;5.318;2024-01-15T08:41:38;2.00;75.70
78779;DHT22;68121;52.404;5.318;2024-01-15T08:44:04;2.00;75.70
78779;DHT22;68121;52.404;5.318;2024-01-15T08:46:30;2.00;75.90
78779;DHT22;68121;52.404;5.318;2024-01-15T08:48:56;2.10;75.70
78779;DHT22;68121;52.404;5.318;2024-01-15T08:51:22;2.10;75.60
78779;DHT22;68121;52.404;5.318;2024-01-15T08:53:48;2.10;75.50
78779;DHT22;68121;52.404;5.318;2024-01-15T08:56:14;2.00;75.50
78779;DHT22;68121;52.404;5.318;2024-01-15T08:58:40;1.90;75.60
78779;DHT22;68121;52.404;5.318;2024-01-15T09:01:06;1.90;75.70
78779;DHT22;68121;52.404;5.318;2024-01-15T09:03:32;1.90;75.70
78779;DHT22;68121;52.404;5.318;2024-01-15T09:05:59;1.90;75.80
78779;DHT22;68121;52.404;5.318;2024-01-15T09:08:28;1.90;75.70
78779;DHT22;68121;52.404;5.318;2024-01-15T09:10:54;1.90;75.80
78779;DHT22;68121;52.404;5.318;2024-01-15T09:13:20;2.00;75.70
78779;DHT22;68121;52.404;5.318;2024-01-15T09:15:46;2.00;75.60
78779;DHT22;68121;52.404;5.318;2024-01-15T09:18:12;2.00;75.50
78779;DHT22;68121;52.404;5.318;2024-01-15T09:20:38;2.10;75.50
78779;DHT22;68121;52.404;5.318;2024-01-15T09:23:05;2.10;75.50
78779;DHT22;68121;52.404;5.318;2024-01-15T09:25:31;2.10;75.50
78779;DHT22;68121;52.404;5.318;2024-01-15T09:27:57;2.20;75.50
78779;DHT22;68121;52.404;5.318;2024-01-15T09:30:23;2.30;75.70
78779;DHT22;68121;52.404;5.318;2024-01-15T09:32:49;2.40;75.40
78779;DHT22;68121;52.404;5.318;2024-01-15T09:35:16;2.40;75.30
78779;DHT22;68121;52.404;5.318;2024-01-15T09:37:42;2.50;75.20
78779;DHT22;68121;52.404;5.318;2024-01-15T09:40:12;2.50;75.30
78779;DHT22;68121;52.404;5.318;2024-01-15T09:42:42;2.70;75.30
78779;DHT22;68121;52.404;5.318;2024-01-15T09:45:10;3.00;75.00
78779;DHT22;68121;52.404;5.318;2024-01-15T09:47:37;3.20;74.60
78779;DHT22;68121;52.404;5.318;2024-01-15T09:50:05;3.40;74.30
78779;DHT22;68121;52.404;5.318;2024-01-15T09:52:31;3.60;74.00
78779;DHT22;68121;52.404;5.318;2024-01-15T09:54:59;3.70;73.90
78779;DHT22;68121;52.404;5.318;2024-01-15T09:57:27;3.90;73.60
78779;DHT22;68121;52.404;5.318;2024-01-15T09:59:57;4.00;73.20
78779;DHT22;68121;52.404;5.318;2024-01-15T10:02:25;4.00;73.20
78779;DHT22;68121;52.404;5.318;2024-01-15T10:04:51;4.00;73.20
78779;DHT22;68121;52.404;5.318;2024-01-15T10:07:17;4.00;73.30
78779;DHT22;68121;52.404;5.318;2024-01-15T10:09:45;4.00;73.50
78779;DHT22;68121;52.404;5.318;2024-01-15T10:12:11;4.20;73.60
78779;DHT22;68121;52.404;5.318;2024-01-15T10:14:38;4.40;73.20
78779;DHT22;68121;52.404;5.318;2024-01-15T10:17:13;4.40;72.80
78779;DHT22;68121;52.404;5.318;2024-01-15T10:19:41;4.30;72.70
78779;DHT22;68121;52.404;5.318;2024-01-15T10:22:08;4.20;72.80
78779;DHT22;68121;52.404;5.318;2024-01-15T10:24:36;4.00;73.00
78779;DHT22;68121;52.404;5.318;2024-01-15T10:27:07;3.90;73.40
78779;DHT22;68121;52.404;5.318;2024-01-15T10:29:33;3.90;73.40
78779;DHT22;68121;52.404;5.318;2024-01-15T10:31:59;3.90;73.50
78779;DHT22;68121;52.404;5.318;2024-01-15T10:34:26;3.80;73.50
78779;DHT22;68121;52.404;5.318;2024-01-15T10:36:52;3.70;73.40
78779;DHT22;68121;52.404;5.318;2024-01-15T10:39:24;3.60;73.40
78779;DHT22;68121;52.404;5.318;2024-01-15T10:41:51;3.50;73.50
78779;DHT22;68121;52.404;5.318;2024-01-15T10:44:17;3.50;73.60
78779;DHT22;68121;52.404;5.318;2024-01-15T10:46:45;3.50;73.80
78779;DHT22;68121;52.404;5.318;2024-01-15T10:49:11;3.50;73.90
78779;DHT22;68121;52.404;5.318;2024-01-15T10:51:37;3.70;73.40
78779;DHT22;68121;52.404;5.318;2024-01-15T10:54:04;3.60;73.20
78779;DHT22;68121;52.404;5.318;2024-01-15T10:56:32;3.50;73.10
78779;DHT22;68121;52.404;5.318;2024-01-15T10:59:01;3.50;73.30
78779;DHT22;68121;52.404;5.318;2024-01-15T11:01:28;3.50;73.40
78779;DHT22;68121;52.404;5.318;2024-01-15T11:03:55;3.50;73.70
78779;DHT22;68121;52.404;5.318;2024-01-15T11:06:24;3.60;73.60
78779;DHT22;68121;52.404;5.318;2024-01-15T11:08:52;3.60;73.30
78779;DHT22;68121;52.404;5.318;2024-01-15T11:11:21;3.60;73.20
78779;DHT22;68121;52.404;5.318;2024-01-15T11:13:48;3.70;73.20
78779;DHT22;68121;52.404;5.318;2024-01-15T11:16:16;3.90;73.10
78779;DHT22;68121;52.404;5.318;2024-01-15T11:19:01;4.00;72.90
78779;DHT22;68121;52.404;5.318;2024-01-15T11:21:28;4.10;72.70
78779;DHT22;68121;52.404;5.318;2024-01-15T11:23:57;4.40;72.50
78779;DHT22;68121;52.404;5.318;2024-01-15T11:26:38;4.50;72.30
78779;DHT22;68121;52.404;5.318;2024-01-15T11:32:02;5.10;71.60
78779;DHT22;68121;52.404;5.318;2024-01-15T11:34:50;5.10;71.20
78779;DHT22;68121;52.404;5.318;2024-01-15T11:37:16;5.00;71.20
78779;DHT22;68121;52.404;5.318;2024-01-15T11:39:45;4.90;71.40
78779;DHT22;68121;52.404;5.318;2024-01-15T11:42:14;4.70;71.50
78779;DHT22;68121;52.404;5.318;2024-01-15T11:44:41;4.30;71.60
78779;DHT22;68121;52.404;5.318;2024-01-15T11:47:09;3.90;72.00
78779;DHT22;68121;52.404;5.318;2024-01-15T11:49:58;3.60;72.50
78779;DHT22;68121;52.404;5.318;2024-01-15T11:52:25;3.30;72.90
78779;DHT22;68121;52.404;5.318;2024-01-15T11:57:47;3.00;73.40
78779;DHT22;68121;52.404;5.318;2024-01-15T12:00:15;3.00;73.70
78779;DHT22;68121;52.404;5.318;2024-01-15T12:02:45;3.00;73.60
78779;DHT22;68121;52.404;5.318;2024-01-15T12:05:14;3.00;73.50
78779;DHT22;68121;52.404;5.318;2024-01-15T12:07:44;3.10;73.50
78779;DHT22;68121;52.404;5.318;2024-01-15T12:10:12;3.10;73.60
78779;DHT22;68121;52.404;5.318;2024-01-15T12:12:49;3.30;73.60
78779;DHT22;68121;52.404;5.318;2024-01-15T12:15:17;3.50;73.20
78779;DHT22;68121;52.404;5.318;2024-01-15T12:17:43;3.50;72.80
78779;DHT22;68121;52.404;5.318;2024-01-15T12:20:10;3.50;73.00
78779;DHT22;68121;52.404;5.318;2024-01-15T12:22:36;3.50;72.90
78779;DHT22;68121;52.404;5.318;2024-01-15T12:25:04;3.40;73.00
78779;DHT22;68121;52.404;5.318;2024-01-15T12:27:30;3.40;73.20
78779;DHT22;68121;52.404;5.318;2024-01-15T12:29:58;3.30;73.10
78779;DHT22;68121;52.404;5.318;2024-01-15T12:32:24;3.30;73.00
78779;DHT22;68121;52.404;5.318;2024-01-15T12:34:50;3.20;73.20
78779;DHT22;68121;52.404;5.318;2024-01-15T12:37:18;3.10;73.30
78779;DHT22;68121;52.404;5.318;2024-01-15T12:39:46;3.20;73.30
78779;DHT22;68121;52.404;5.318;2024-01-15T12:42:14;3.10;73.30
78779;DHT22;68121;52.404;5.318;2024-01-15T12:44:40;3.20;73.30
78779;DHT22;68121;52.404;5.318;2024-01-15T12:47:06;3.20;73.30
78779;DHT22;68121;52.404;5.318;2024-01-15T12:49:32;3.20;73.40
78779;DHT22;68121;52.404;5.318;2024-01-15T12:51:59;3.30;73.40
78779;DHT22;68121;52.404;5.318;2024-01-15T12:54:26;3.30;73.40
78779;DHT22;68121;52.404;5.318;2024-01-15T12:56:52;3.30;73.40
78779;DHT22;68121;52.404;5.318;2024-01-15T12:59:18;3.30;73.40
78779;DHT22;68121;52.404;5.318;2024-01-15T13:01:47;3.40;73.50
78779;DHT22;68121;52.404;5.318;2024-01-15T13:04:23;3.60;73.30
78779;DHT22;68121;52.404;5.318;2024-01-15T13:06:50;3.70;73.20
78779;DHT22;68121;52.404;5.318;2024-01-15T13:09:17;4.00;72.90
78779;DHT22;68121;52.404;5.318;2024-01-15T13:11:47;4.30;72.70
78779;DHT22;68121;52.404;5.318;2024-01-15T13:14:13;4.50;72.30
78779;DHT22;68121;52.404;5.318;2024-01-15T13:16:40;4.70;71.90
78779;DHT22;68121;52.404;5.318;2024-01-15T13:19:10;5.00;71.70
78779;DHT22;68121;52.404;5.318;2024-01-15T13:21:40;5.10;71.40
78779;DHT22;68121;52.404;5.318;2024-01-15T13:24:06;5.20;71.20
78779;DHT22;68121;52.404;5.318;2024-01-15T13:26:33;5.30;71.00
78779;DHT22;68121;52.404;5.318;2024-01-15T13:29:05;5.30;70.80
78779;DHT22;68121;52.404;5.318;2024-01-15T13:31:32;5.30;70.60
78779;DHT22;68121;52.404;5.318;2024-01-15T13:33:59;5.00;70.20
78779;DHT22;68121;52.404;5.318;2024-01-15T13:36:26;4.50;70.50
78779;DHT22;68121;52.404;5.318;2024-01-15T13:38:53;4.00;71.00
78779;DHT22;68121;52.404;5.318;2024-01-15T13:41:20;3.70;71.70
78779;DHT22;68121;52.404;5.318;2024-01-15T13:43:54;3.60;72.10
78779;DHT22;68121;52.404;5.318;2024-01-15T13:46:25;3.60;72.20
78779;DHT22;68121;52.404;5.318;2024-01-15T13:48:53;3.60;72.10
78779;DHT22;68121;52.404;5.318;2024-01-15T13:51:22;3.50;72.20
78779;DHT22;68121;52.404;5.318;2024-01-15T13:53:48;3.50;72.20
78779;DHT22;68121;52.404;5.318;2024-01-15T13:56:15;3.50;72.20
78779;DHT22;68121;52.404;5.318;2024-01-15T13:58:41;3.50;72.20
78779;DHT22;68121;52.404;5.318;2024-01-15T14:01:09;3.50;72.30
78779;DHT22;68121;52.404;5.318;2024-01-15T14:03:36;3.60;72.40
78779;DHT22;68121;52.404;5.318;2024-01-15T14:06:02;3.70;72.30
78779;DHT22;68121;52.404;5.318;2024-01-15T14:08:35;3.80;72.20
78779;DHT22;68121;52.404;5.318;2024-01-15T14:11:03;3.90;72.00
78779;DHT22;68121;52.404;5.318;2024-01-15T14:13:32;3.90;71.80
78779;DHT22;68121;52.404;5.318;2024-01-15T14:15:58;3.90;71.60
78779;DHT22;68121;52.404;5.318;2024-01-15T14:18:24;3.70;71.60
78779;DHT22;68121;52.404;5.318;2024-01-15T14:20:57;3.60;71.80
78779;DHT22;68121;52.404;5.318;2024-01-15T14:23:23;3.50;72.00
78779;DHT22;68121;52.404;5.318;2024-01-15T14:25:50;3.30;72.20
78779;DHT22;68121;52.404;5.318;2024-01-15T14:28:16;3.30;72.50
78779;DHT22;68121;52.404;5.318;2024-01-15T14:30:42;3.40;72.60
78779;DHT22;68121;52.404;5.318;2024-01-15T14:33:08;3.50;72.70
78779;DHT22;68121;52.404;5.318;2024-01-15T14:35:34;3.60;72.60
78779;DHT22;68121;52.404;5.318;2024-01-15T14:38:00;3.80;72.50
78779;DHT22;68121;52.404;5.318;2024-01-15T14:40:26;3.90;72.50
78779;DHT22;68121;52.404;5.318;2024-01-15T14:42:52;4.00;72.30
78779;DHT22;68121;52.404;5.318;2024-01-15T14:45:19;4.10;72.10
78779;DHT22;68121;52.404;5.318;2024-01-15T14:47:45;4.10;72.00
78779;DHT22;68121;52.404;5.318;2024-01-15T14:50:11;4.20;72.00
78779;DHT22;68121;52.404;5.318;2024-01-15T14:52:39;4.20;72.00
78779;DHT22;68121;52.404;5.318;2024-01-15T14:55:08;4.30;71.80
78779;DHT22;68121;52.404;5.318;2024-01-15T14:57:35;4.30;71.90
78779;DHT22;68121;52.404;5.318;2024-01-15T15:00:01;4.30;71.80
78779;DHT22;68121;52.404;5.318;2024-01-15T15:02:28;4.30;71.80
78779;DHT22;68121;52.404;5.318;2024-01-15T15:04:54;4.30;71.70
78779;DHT22;68121;52.404;5.318;2024-01-15T15:07:22;4.30;71.70
78779;DHT22;68121;52.404;5.318;2024-01-15T15:09:48;4.30;71.30
78779;DHT22;68121;52.404;5.318;2024-01-15T15:12:16;4.20;71.10
78779;DHT22;68121;52.404;5.318;2024-01-15T15:14:43;4.10;71.20
78779;DHT22;68121;52.404;5.318;2024-01-15T15:17:09;3.90;71.40
78779;DHT22;68121;52.404;5.318;2024-01-15T15:19:35;3.90;71.40
78779;DHT22;68121;52.404;5.318;2024-01-15T15:22:02;3.70;71.50
78779;DHT22;68121;52.404;5.318;2024-01-15T15:24:28;3.60;71.60
78779;DHT22;68121;52.404;5.318;2024-01-15T15:26:54;3.50;71.30
78779;DHT22;68121;52.404;5.318;2024-01-15T15:29:20;3.30;71.40
78779;DHT22;68121;52.404;5.318;2024-01-15T15:31:46;3.10;71.50
78779;DHT22;68121;52.404;5.318;2024-01-15T15:34:14;3.00;71.80
78779;DHT22;68121;52.404;5.318;2024-01-15T15:36:41;3.00;72.00
78779;DHT22;68121;52.404;5.318;2024-01-15T15:39:07;2.90;72.00
78779;DHT22;68121;52.404;5.318;2024-01-15T15:41:33;2.80;72.10
78779;DHT22;68121;52.404;5.318;2024-01-15T15:43:59;2.80;72.10
78779;DHT22;68121;52.404;5.318;2024-01-15T15:46:25;2.70;72.20